sensor_id;sensor_type;location;lat;lon;timestamp;pressure;altitude;pressure_sealevel;temperature;humidity
25638;BME280;13496;51.040;13.680;2023-04-09T00:02:36;100763.09;;;17.50;52.87
25638;BME280;13496;51.040;13.680;2023-04-09T00:07:37;100754.56;;;17.48;53.40
25638;BME280;13496;51.040;13.680;2023-04-09T00:12:39;100757.34;;;17.46;52.80
25638;BME280;13496;51.040;13.680;2023-04-09T00:17:41;100754.88;;;17.45;52.82
25638;BME280;13496;51.040;13.680;2023-04-09T00:22:42;100755.06;;;17.43;52.93
25638;BME280;13496;51.040;13.680;2023-04-09T00:27:44;100763.06;;;17.41;53.08
25638;BME280;13496;51.040;13.680;2023-04-09T00:32:46;100765.69;;;17.41;52.77
25638;BME280;13496;51.040;13.680;2023-04-09T00:37:48;100754.38;;;17.41;53.08
25638;BME280;13496;51.040;13.680;2023-04-09T00:42:49;100753.84;;;17.37;52.88
25638;BME280;13496;51.040;13.680;2023-04-09T00:47:52;100747.78;;;17.37;52.99
25638;BME280;13496;51.040;13.680;2023-04-09T00:52:54;100743.53;;;17.36;52.99
25638;BME280;13496;51.040;13.680;2023-04-09T00:57:56;100755.84;;;17.35;53.10
25638;BME280;13496;51.040;13.680;2023-04-09T01:02:59;100754.97;;;17.35;52.74
25638;BME280;13496;51.040;13.680;2023-04-09T01:29:04;100766.13;;;17.29;53.04
25638;BME280;13496;51.040;13.680;2023-04-09T01:34:08;100764.44;;;17.28;52.96
25638;BME280;13496;51.040;13.680;2023-04-09T01:39:11;100769.03;;;17.26;53.05
25638;BME280;13496;51.040;13.680;2023-04-09T01:44:13;100771.78;;;17.24;53.07
25638;BME280;13496;51.040;13.680;2023-04-09T01:49:16;100767.22;;;17.26;52.84
25638;BME280;13496;51.040;13.680;2023-04-09T01:54:18;100769.16;;;17.24;52.72
25638;BME280;13496;51.040;13.680;2023-04-09T01:59:20;100766.88;;;17.21;52.76
25638;BME280;13496;51.040;13.680;2023-04-09T02:04:27;100777.69;;;17.18;53.06
25638;BME280;13496;51.040;13.680;2023-04-09T02:09:33;100777.38;;;17.21;53.05
25638;BME280;13496;51.040;13.680;2023-04-09T02:14:37;100777.50;;;17.20;52.77
25638;BME280;13496;51.040;13.680;2023-04-09T02:19:44;100775.88;;;17.18;52.72
25638;BME280;13496;51.040;13.680;2023-04-09T02:24:45;100776.03;;;17.17;52.83
25638;BME280;13496;51.040;13.680;2023-04-09T02:29:47;100779.91;;;17.13;53.04
25638;BME280;13496;51.040;13.680;2023-04-09T02:34:49;100779.91;;;17.13;53.64
25638;BME280;13496;51.040;13.680;2023-04-09T02:39:50;100771.75;;;17.16;52.81
25638;BME280;13496;51.040;13.680;2023-04-09T02:44:52;100772.91;;;17.13;52.94
25638;BME280;13496;51.040;13.680;2023-04-09T02:49:54;100774.03;;;17.11;52.83
25638;BME280;13496;51.040;13.680;2023-04-09T02:54:55;100763.53;;;17.11;52.96
25638;BME280;13496;51.040;13.680;2023-04-09T02:59:57;100780.09;;;17.11;52.78
25638;BME280;13496;51.040;13.680;2023-04-09T03:04:59;100776.94;;;17.08;52.89
25638;BME280;13496;51.040;13.680;2023-04-09T03:10:01;100782.34;;;17.06;52.90
25638;BME280;13496;51.040;13.680;2023-04-09T03:15:02;100782.19;;;17.08;52.90
25638;BME280;13496;51.040;13.680;2023-04-09T03:20:06;100777.94;;;17.07;52.56
25638;BME280;13496;51.040;13.680;2023-04-09T03:25:11;100782.47;;;17.05;52.87
25638;BME280;13496;51.040;13.680;2023-04-09T03:30:13;100770.53;;;17.02;52.69
25638;BME280;13496;51.040;13.680;2023-04-09T03:35:18;100769.53;;;17.03;52.88
25638;BME280;13496;51.040;13.680;2023-04-09T03:40:21;100767.91;;;17.02;52.71
25638;BME280;13496;51.040;13.680;2023-04-09T03:45:23;100775.09;;;17.00;52.79
25638;BME280;13496;51.040;13.680;2023-04-09T03:50:27;100770.00;;;16.99;52.83
25638;BME280;13496;51.040;13.680;2023-04-09T03:55:30;100776.53;;;16.95;52.77
25638;BME280;13496;51.040;13.680;2023-04-09T04:00:37;100779.50;;;17.00;52.63
25638;BME280;13496;51.040;13.680;2023-04-09T04:06:00;100778.97;;;16.96;52.75
25638;BME280;13496;51.040;13.680;2023-04-09T04:11:08;100780.09;;;16.93;52.74
25638;BME280;13496;51.040;13.680;2023-04-09T04:16:10;100772.53;;;16.90;52.87
25638;BME280;13496;51.040;13.680;2023-04-09T04:21:15;100774.34;;;16.90;52.98
25638;BME280;13496;51.040;13.680;2023-04-09T04:26:20;100773.53;;;16.89;52.80
25638;BME280;13496;51.040;13.680;2023-04-09T04:31:22;100767.97;;;16.92;52.59
25638;BME280;13496;51.040;13.680;2023-04-09T04:36:26;100775.84;;;16.92;52.56
25638;BME280;13496;51.040;13.680;2023-04-09T04:41:28;100778.75;;;16.89;52.65
25638;BME280;13496;51.040;13.680;2023-04-09T04:46:41;100791.06;;;16.89;52.69
25638;BME280;13496;51.040;13.680;2023-04-09T04:51:43;100788.44;;;16.89;52.74
25638;BME280;13496;51.040;13.680;2023-04-09T04:56:48;100794.50;;;16.89;52.70
25638;BME280;13496;51.040;13.680;2023-04-09T05:02:12;100787.59;;;16.88;52.51
25638;BME280;13496;51.040;13.680;2023-04-09T05:07:27;100786.63;;;16.89;52.49
25638;BME280;13496;51.040;13.680;2023-04-09T05:12:31;100795.47;;;16.88;52.52
25638;BME280;13496;51.040;13.680;2023-04-09T05:17:33;100801.38;;;16.90;52.80
25638;BME280;13496;51.040;13.680;2023-04-09T05:22:35;100798.75;;;16.90;52.37
25638;BME280;13496;51.040;13.680;2023-04-09T05:27:39;100797.81;;;16.91;52.78
25638;BME280;13496;51.040;13.680;2023-04-09T05:32:40;100801.25;;;16.92;52.53
25638;BME280;13496;51.040;13.680;2023-04-09T05:37:42;100804.50;;;16.94;52.37
25638;BME280;13496;51.040;13.680;2023-04-09T05:42:44;100803.56;;;16.95;52.42
25638;BME280;13496;51.040;13.680;2023-04-09T05:48:00;100813.59;;;17.00;52.37
25638;BME280;13496;51.040;13.680;2023-04-09T05:53:02;100817.56;;;17.04;52.21
25638;BME280;13496;51.040;13.680;2023-04-09T05:58:12;100820.19;;;17.04;52.56
25638;BME280;13496;51.040;13.680;2023-04-09T06:03:14;100824.00;;;17.09;52.08
25638;BME280;13496;51.040;13.680;2023-04-09T06:08:16;100810.44;;;17.14;52.13
25638;BME280;13496;51.040;13.680;2023-04-09T06:13:17;100807.63;;;17.15;52.08
25638;BME280;13496;51.040;13.680;2023-04-09T06:18:19;100810.13;;;17.17;52.01
25638;BME280;13496;51.040;13.680;2023-04-09T06:23:21;100800.28;;;17.19;52.03
25638;BME280;13496;51.040;13.680;2023-04-09T06:28:22;100796.69;;;17.20;51.96
25638;BME280;13496;51.040;13.680;2023-04-09T06:33:24;100800.97;;;17.21;51.97
25638;BME280;13496;51.040;13.680;2023-04-09T06:38:26;100801.31;;;17.26;52.18
25638;BME280;13496;51.040;13.680;2023-04-09T06:43:27;100803.66;;;17.29;52.17
25638;BME280;13496;51.040;13.680;2023-04-09T06:48:29;100809.41;;;17.33;52.04
25638;BME280;13496;51.040;13.680;2023-04-09T06:53:31;100823.19;;;17.35;52.27
25638;BME280;13496;51.040;13.680;2023-04-09T06:58:33;100828.00;;;17.39;51.96
25638;BME280;13496;51.040;13.680;2023-04-09T07:03:35;100820.78;;;17.41;52.27
25638;BME280;13496;51.040;13.680;2023-04-09T07:08:36;100827.22;;;17.47;52.10
25638;BME280;13496;51.040;13.680;2023-04-09T07:13:38;100824.44;;;17.49;51.84
25638;BME280;13496;51.040;13.680;2023-04-09T07:18:39;100831.00;;;17.53;51.35
25638;BME280;13496;51.040;13.680;2023-04-09T07:23:41;100823.53;;;17.58;51.81
25638;BME280;13496;51.040;13.680;2023-04-09T07:28:43;100826.78;;;17.60;51.55
25638;BME280;13496;51.040;13.680;2023-04-09T07:33:44;100835.88;;;17.65;51.91
25638;BME280;13496;51.040;13.680;2023-04-09T07:38:46;100829.84;;;17.73;51.62
25638;BME280;13496;51.040;13.680;2023-04-09T07:43:48;100828.72;;;17.76;51.77
25638;BME280;13496;51.040;13.680;2023-04-09T07:48:49;100828.56;;;17.77;51.86
25638;BME280;13496;51.040;13.680;2023-04-09T07:53:51;100830.72;;;17.82;51.73
25638;BME280;13496;51.040;13.680;2023-04-09T07:58:53;100830.25;;;17.86;51.98
25638;BME280;13496;51.040;13.680;2023-04-09T08:03:54;100830.63;;;17.92;52.14
25638;BME280;13496;51.040;13.680;2023-04-09T08:08:56;100834.56;;;17.96;51.87
25638;BME280;13496;51.040;13.680;2023-04-09T08:13:58;100836.03;;;17.98;51.59
25638;BME280;13496;51.040;13.680;2023-04-09T08:19:03;100820.97;;;18.00;51.24
25638;BME280;13496;51.040;13.680;2023-04-09T08:24:05;100816.22;;;18.04;51.63
25638;BME280;13496;51.040;13.680;2023-04-09T08:29:08;100817.53;;;18.08;51.35
25638;BME280;13496;51.040;13.680;2023-04-09T08:34:10;100818.56;;;18.15;51.49
25638;BME280;13496;51.040;13.680;2023-04-09T08:39:14;100833.69;;;18.21;51.44
25638;BME280;13496;51.040;13.680;2023-04-09T08:44:17;100833.84;;;18.20;51.66
25638;BME280;13496;51.040;13.680;2023-04-09T08:49:19;100836.31;;;18.21;51.69
25638;BME280;13496;51.040;13.680;2023-04-09T08:54:21;100848.97;;;18.26;51.26
25638;BME280;13496;51.040;13.680;2023-04-09T08:59:23;100843.75;;;18.34;51.44
25638;BME280;13496;51.040;13.680;2023-04-09T09:04:42;100833.09;;;18.35;51.38
25638;BME280;13496;51.040;13.680;2023-04-09T09:09:52;100833.25;;;18.42;50.83
25638;BME280;13496;51.040;13.680;2023-04-09T09:14:54;100835.72;;;18.44;51.05
25638;BME280;13496;51.040;13.680;2023-04-09T09:19:57;100835.56;;;18.53;50.85
25638;BME280;13496;51.040;13.680;2023-04-09T09:24:59;100839.06;;;18.70;50.36
25638;BME280;13496;51.040;13.680;2023-04-09T09:30:05;100827.78;;;18.86;50.02
25638;BME280;13496;51.040;13.680;2023-04-09T09:35:07;100831.72;;;18.90;49.79
25638;BME280;13496;51.040;13.680;2023-04-09T09:40:09;100816.75;;;18.91;49.77
25638;BME280;13496;51.040;13.680;2023-04-09T09:45:17;100813.31;;;18.98;50.43
25638;BME280;13496;51.040;13.680;2023-04-09T09:50:22;100811.50;;;19.15;50.04
25638;BME280;13496;51.040;13.680;2023-04-09T09:55:26;100807.22;;;19.22;50.03
25638;BME280;13496;51.040;13.680;2023-04-09T10:00:31;100805.72;;;19.36;49.59
25638;BME280;13496;51.040;13.680;2023-04-09T10:05:34;100805.72;;;19.44;50.06
25638;BME280;13496;51.040;13.680;2023-04-09T10:10:39;100793.19;;;19.46;49.96
25638;BME280;13496;51.040;13.680;2023-04-09T10:15:43;100789.56;;;19.55;50.06
25638;BME280;13496;51.040;13.680;2023-04-09T10:20:50;100791.41;;;19.47;49.96
25638;BME280;13496;51.040;13.680;2023-04-09T10:25:56;100781.22;;;19.44;50.57
25638;BME280;13496;51.040;13.680;2023-04-09T10:30:58;100783.31;;;19.56;50.24
25638;BME280;13496;51.040;13.680;2023-04-09T10:36:09;100781.84;;;19.62;49.93
25638;BME280;13496;51.040;13.680;2023-04-09T10:41:14;100781.66;;;19.64;49.91
25638;BME280;13496;51.040;13.680;2023-04-09T10:46:35;100768.16;;;19.67;49.81
25638;BME280;13496;51.040;13.680;2023-04-09T10:51:37;100758.44;;;19.67;50.12
25638;BME280;13496;51.040;13.680;2023-04-09T10:56:39;100766.31;;;19.75;49.97
25638;BME280;13496;51.040;13.680;2023-04-09T11:01:51;100760.91;;;19.69;49.74
25638;BME280;13496;51.040;13.680;2023-04-09T11:06:53;100753.81;;;19.77;50.02
25638;BME280;13496;51.040;13.680;2023-04-09T11:11:55;100755.09;;;19.81;49.76
25638;BME280;13496;51.040;13.680;2023-04-09T11:16:58;100750.94;;;19.87;49.52
25638;BME280;13496;51.040;13.680;2023-04-09T11:22:02;100746.81;;;19.93;49.64
25638;BME280;13496;51.040;13.680;2023-04-09T11:27:05;100749.25;;;20.02;49.83
25638;BME280;13496;51.040;13.680;2023-04-09T11:32:06;100757.25;;;20.09;48.97
25638;BME280;13496;51.040;13.680;2023-04-09T11:37:13;100761.09;;;20.06;49.65
25638;BME280;13496;51.040;13.680;2023-04-09T11:42:17;100746.38;;;20.12;49.10
25638;BME280;13496;51.040;13.680;2023-04-09T11:47:19;100745.38;;;20.13;49.55
25638;BME280;13496;51.040;13.680;2023-04-09T11:52:21;100742.59;;;20.15;49.19
25638;BME280;13496;51.040;13.680;2023-04-09T11:57:23;100748.63;;;20.23;49.15
25638;BME280;13496;51.040;13.680;2023-04-09T12:02:24;100735.44;;;20.23;49.46
25638;BME280;13496;51.040;13.680;2023-04-09T12:07:31;100737.44;;;20.21;49.36
25638;BME280;13496;51.040;13.680;2023-04-09T12:12:40;100738.25;;;20.22;49.28
25638;BME280;13496;51.040;13.680;2023-04-09T12:17:42;100743.34;;;20.23;49.22
25638;BME280;13496;51.040;13.680;2023-04-09T12:22:43;100743.81;;;20.27;49.26
25638;BME280;13496;51.040;13.680;2023-04-09T12:27:45;100747.63;;;20.24;49.39
25638;BME280;13496;51.040;13.680;2023-04-09T12:32:47;100743.53;;;20.22;49.38
25638;BME280;13496;51.040;13.680;2023-04-09T12:37:49;100745.84;;;20.25;49.65
25638;BME280;13496;51.040;13.680;2023-04-09T12:42:51;100744.00;;;20.25;49.22
25638;BME280;13496;51.040;13.680;2023-04-09T12:47:54;100742.53;;;20.23;49.55
25638;BME280;13496;51.040;13.680;2023-04-09T12:52:55;100738.75;;;20.25;49.71
25638;BME280;13496;51.040;13.680;2023-04-09T12:57:57;100727.78;;;20.37;49.38
25638;BME280;13496;51.040;13.680;2023-04-09T13:02:59;100727.91;;;20.43;49.27
25638;BME280;13496;51.040;13.680;2023-04-09T13:08:00;100720.16;;;20.42;49.37
25638;BME280;13496;51.040;13.680;2023-04-09T13:13:05;100724.81;;;20.40;49.74
25638;BME280;13496;51.040;13.680;2023-04-09T13:18:12;100718.22;;;20.36;49.31
25638;BME280;13496;51.040;13.680;2023-04-09T13:23:14;100713.88;;;20.51;49.29
25638;BME280;13496;51.040;13.680;2023-04-09T13:28:16;100708.09;;;20.47;49.02
25638;BME280;13496;51.040;13.680;2023-04-09T13:33:17;100708.91;;;20.48;49.15
25638;BME280;13496;51.040;13.680;2023-04-09T13:38:19;100698.53;;;20.46;49.47
25638;BME280;13496;51.040;13.680;2023-04-09T13:43:21;100700.84;;;20.49;49.43
25638;BME280;13496;51.040;13.680;2023-04-09T13:48:28;100688.50;;;20.50;49.44
25638;BME280;13496;51.040;13.680;2023-04-09T13:53:29;100686.72;;;20.42;49.30
25638;BME280;13496;51.040;13.680;2023-04-09T13:58:31;100680.00;;;20.40;49.47
25638;BME280;13496;51.040;13.680;2023-04-09T14:03:33;100686.19;;;20.47;49.42
25638;BME280;13496;51.040;13.680;2023-04-09T14:08:35;100683.22;;;20.50;49.25
25638;BME280;13496;51.040;13.680;2023-04-09T14:13:37;100679.59;;;20.51;49.39
25638;BME280;13496;51.040;13.680;2023-04-09T14:18:38;100672.31;;;20.53;49.45
25638;BME280;13496;51.040;13.680;2023-04-09T14:23:40;100668.38;;;20.49;49.46
25638;BME280;13496;51.040;13.680;2023-04-09T14:28:42;100668.25;;;20.42;49.99
25638;BME280;13496;51.040;13.680;2023-04-09T14:33:45;100671.84;;;20.49;49.65
25638;BME280;13496;51.040;13.680;2023-04-09T14:38:46;100664.66;;;20.43;49.59
25638;BME280;13496;51.040;13.680;2023-04-09T14:43:49;100658.25;;;20.38;49.57
25638;BME280;13496;51.040;13.680;2023-04-09T14:48:51;100651.50;;;20.35;49.67
25638;BME280;13496;51.040;13.680;2023-04-09T14:53:52;100653.78;;;20.38;49.51
25638;BME280;13496;51.040;13.680;2023-04-09T14:58:54;100654.81;;;20.37;49.75
25638;BME280;13496;51.040;13.680;2023-04-09T15:03:56;100654.16;;;20.35;49.86
25638;BME280;13496;51.040;13.680;2023-04-09T15:08:57;100657.25;;;20.39;49.85
25638;BME280;13496;51.040;13.680;2023-04-09T15:13:59;100651.16;;;20.38;49.70
25638;BME280;13496;51.040;13.680;2023-04-09T15:19:02;100651.00;;;20.40;49.72
25638;BME280;13496;51.040;13.680;2023-04-09T15:24:04;100646.34;;;20.42;49.93
25638;BME280;13496;51.040;13.680;2023-04-09T15:29:06;100646.34;;;20.42;49.88
25638;BME280;13496;51.040;13.680;2023-04-09T15:34:08;100642.72;;;20.43;49.94
25638;BME280;13496;51.040;13.680;2023-04-09T15:39:10;100644.19;;;20.45;49.87
25638;BME280;13496;51.040;13.680;2023-04-09T15:44:11;100643.19;;;20.46;50.26
25638;BME280;13496;51.040;13.680;2023-04-09T15:49:13;100636.94;;;20.47;49.79
25638;BME280;13496;51.040;13.680;2023-04-09T15:54:15;100643.84;;;20.48;49.69
25638;BME280;13496;51.040;13.680;2023-04-09T15:59:17;100639.56;;;20.47;50.09
25638;BME280;13496;51.040;13.680;2023-04-09T16:04:19;100645.66;;;20.48;49.79
25638;BME280;13496;51.040;13.680;2023-04-09T16:09:21;100644.66;;;20.49;49.78
25638;BME280;13496;51.040;13.680;2023-04-09T16:14:23;100641.03;;;20.50;49.83
25638;BME280;13496;51.040;13.680;2023-04-09T16:19:26;100645.50;;;20.49;50.10
25638;BME280;13496;51.040;13.680;2023-04-09T16:24:27;100638.75;;;20.47;50.07
25638;BME280;13496;51.040;13.680;2023-04-09T16:29:31;100642.19;;;20.47;50.21
25638;BME280;13496;51.040;13.680;2023-04-09T16:34:32;100643.03;;;20.48;50.04
25638;BME280;13496;51.040;13.680;2023-04-09T16:39:35;100643.19;;;20.46;50.04
25638;BME280;13496;51.040;13.680;2023-04-09T16:44:37;100648.28;;;20.48;50.26
25638;BME280;13496;51.040;13.680;2023-04-09T16:49:38;100645.81;;;20.46;50.28
25638;BME280;13496;51.040;13.680;2023-04-09T16:54:40;100641.53;;;20.45;50.11
25638;BME280;13496;51.040;13.680;2023-04-09T16:59:42;100634.81;;;20.43;49.97
25638;BME280;13496;51.040;13.680;2023-04-09T17:04:45;100647.00;;;20.44;50.17
25638;BME280;13496;51.040;13.680;2023-04-09T17:09:47;100651.63;;;20.42;50.24
25638;BME280;13496;51.040;13.680;2023-04-09T17:14:48;100652.78;;;20.39;50.30
25638;BME280;13496;51.040;13.680;2023-04-09T17:19:50;100653.34;;;20.35;50.53
25638;BME280;13496;51.040;13.680;2023-04-09T17:24:52;100666.84;;;20.31;50.34
25638;BME280;13496;51.040;13.680;2023-04-09T17:29:54;100658.69;;;20.26;50.51
25638;BME280;13496;51.040;13.680;2023-04-09T17:34:55;100657.66;;;20.27;50.56
25638;BME280;13496;51.040;13.680;2023-04-09T17:39:57;100665.94;;;20.24;50.90
25638;BME280;13496;51.040;13.680;2023-04-09T17:44:59;100675.03;;;20.22;50.78
25638;BME280;13496;51.040;13.680;2023-04-09T17:50:01;100665.66;;;20.19;50.76
25638;BME280;13496;51.040;13.680;2023-04-09T17:55:09;100672.53;;;20.20;50.50
25638;BME280;13496;51.040;13.680;2023-04-09T18:00:14;100673.25;;;20.14;50.95
25638;BME280;13496;51.040;13.680;2023-04-09T18:05:22;100676.72;;;20.15;50.78
25638;BME280;13496;51.040;13.680;2023-04-09T18:10:23;100674.25;;;20.13;51.05
25638;BME280;13496;51.040;13.680;2023-04-09T18:15:26;100674.63;;;20.10;50.69
25638;BME280;13496;51.040;13.680;2023-04-09T18:20:28;100674.78;;;20.09;50.61
25638;BME280;13496;51.040;13.680;2023-04-09T18:25:30;100675.97;;;20.06;50.94
25638;BME280;13496;51.040;13.680;2023-04-09T18:30:34;100676.13;;;20.04;50.59
25638;BME280;13496;51.040;13.680;2023-04-09T18:35:37;100691.31;;;20.02;50.80
25638;BME280;13496;51.040;13.680;2023-04-09T18:40:41;100691.66;;;19.99;51.08
25638;BME280;13496;51.040;13.680;2023-04-09T18:45:43;100698.06;;;19.97;50.82
25638;BME280;13496;51.040;13.680;2023-04-09T18:50:46;100706.97;;;19.96;50.84
25638;BME280;13496;51.040;13.680;2023-04-09T18:55:47;100705.97;;;19.97;50.96
25638;BME280;13496;51.040;13.680;2023-04-09T19:00:49;100705.31;;;19.95;50.95
25638;BME280;13496;51.040;13.680;2023-04-09T19:05:52;100699.59;;;19.91;51.03
25638;BME280;13496;51.040;13.680;2023-04-09T19:10:53;100696.31;;;19.89;50.93
25638;BME280;13496;51.040;13.680;2023-04-09T19:15:56;100702.38;;;19.90;50.86
25638;BME280;13496;51.040;13.680;2023-04-09T19:20:57;100696.66;;;19.86;51.15
25638;BME280;13496;51.040;13.680;2023-04-09T19:25:59;100695.81;;;19.86;51.05
25638;BME280;13496;51.040;13.680;2023-04-09T19:31:04;100699.63;;;19.83;51.34
25638;BME280;13496;51.040;13.680;2023-04-09T19:36:06;100697.16;;;19.81;51.12
25638;BME280;13496;51.040;13.680;2023-04-09T19:41:08;100710.34;;;19.81;51.00
25638;BME280;13496;51.040;13.680;2023-04-09T19:46:10;100705.22;;;19.80;50.93
25638;BME280;13496;51.040;13.680;2023-04-09T19:51:15;100702.78;;;19.78;51.28
25638;BME280;13496;51.040;13.680;2023-04-09T19:56:18;100697.69;;;19.77;51.14
25638;BME280;13496;51.040;13.680;2023-04-09T20:01:19;100700.47;;;19.75;51.45
25638;BME280;13496;51.040;13.680;2023-04-09T20:06:21;100699.03;;;19.73;51.38
25638;BME280;13496;51.040;13.680;2023-04-09T20:11:23;100708.91;;;19.71;51.31
25638;BME280;13496;51.040;13.680;2023-04-09T20:16:24;100708.91;;;19.71;50.94
25638;BME280;13496;51.040;13.680;2023-04-09T20:21:26;100711.72;;;19.69;50.94
25638;BME280;13496;51.040;13.680;2023-04-09T20:26:29;100699.53;;;19.68;51.11
25638;BME280;13496;51.040;13.680;2023-04-09T20:31:31;100698.91;;;19.66;51.31
25638;BME280;13496;51.040;13.680;2023-04-09T20:36:35;100702.50;;;19.65;50.90
25638;BME280;13496;51.040;13.680;2023-04-09T20:41:37;100706.94;;;19.65;50.86
25638;BME280;13496;51.040;13.680;2023-04-09T20:46:38;100701.06;;;19.63;51.12
25638;BME280;13496;51.040;13.680;2023-04-09T20:51:40;100698.53;;;19.61;51.01
25638;BME280;13496;51.040;13.680;2023-04-09T20:56:42;100696.91;;;19.60;50.93
25638;BME280;13496;51.040;13.680;2023-04-09T21:01:44;100704.16;;;19.58;50.67
25638;BME280;13496;51.040;13.680;2023-04-09T21:06:46;100703.50;;;19.56;50.84
25638;BME280;13496;51.040;13.680;2023-04-09T21:11:48;100704.50;;;19.55;50.66
25638;BME280;13496;51.040;13.680;2023-04-09T21:16:49;100697.59;;;19.54;50.69
25638;BME280;13496;51.040;13.680;2023-04-09T21:21:52;100702.22;;;19.52;51.25
25638;BME280;13496;51.040;13.680;2023-04-09T21:26:54;100709.28;;;19.51;50.92
25638;BME280;13496;51.040;13.680;2023-04-09T21:31:56;100718.81;;;19.52;50.81
25638;BME280;13496;51.040;13.680;2023-04-09T21:36:58;100712.06;;;19.50;50.97
25638;BME280;13496;51.040;13.680;2023-04-09T21:42:02;100714.91;;;19.48;51.22
25638;BME280;13496;51.040;13.680;2023-04-09T21:47:04;100709.81;;;19.47;50.80
25638;BME280;13496;51.040;13.680;2023-04-09T21:52:09;100709.97;;;19.45;50.92
25638;BME280;13496;51.040;13.680;2023-04-09T21:57:14;100705.84;;;19.43;50.90
25638;BME280;13496;51.040;13.680;2023-04-09T22:02:16;100710.28;;;19.42;51.23
25638;BME280;13496;51.040;13.680;2023-04-09T22:07:18;100707.03;;;19.40;50.92
25638;BME280;13496;51.040;13.680;2023-04-09T22:12:20;100709.00;;;19.38;51.22
25638;BME280;13496;51.040;13.680;2023-04-09T22:17:22;100716.25;;;19.36;51.23
25638;BME280;13496;51.040;13.680;2023-04-09T22:22:24;100700.00;;;19.32;51.30
25638;BME280;13496;51.040;13.680;2023-04-09T22:27:25;100713.28;;;19.31;51.58
25638;BME280;13496;51.040;13.680;2023-04-09T22:32:27;100719.56;;;19.30;51.75
25638;BME280;13496;51.040;13.680;2023-04-09T22:37:29;100712.66;;;19.29;51.53
25638;BME280;13496;51.040;13.680;2023-04-09T22:42:31;100711.50;;;19.23;51.50
25638;BME280;13496;51.040;13.680;2023-04-09T22:47:33;100717.94;;;19.21;51.47
25638;BME280;13496;51.040;13.680;2023-04-09T22:52:35;100704.94;;;19.19;51.49
25638;BME280;13496;51.040;13.680;2023-04-09T22:57:37;100709.56;;;19.17;51.51
25638;BME280;13496;51.040;13.680;2023-04-09T23:02:38;100708.56;;;19.18;51.20
25638;BME280;13496;51.040;13.680;2023-04-09T23:07:41;100715.31;;;19.13;51.50
25638;BME280;13496;51.040;13.680;2023-04-09T23:12:43;100709.56;;;19.09;51.77
25638;BME280;13496;51.040;13.680;2023-04-09T23:17:44;100701.03;;;19.07;51.74
25638;BME280;13496;51.040;13.680;2023-04-09T23:22:47;100695.59;;;19.08;51.43
25638;BME280;13496;51.040;13.680;2023-04-09T23:27:49;100698.75;;;19.04;51.60
25638;BME280;13496;51.040;13.680;2023-04-09T23:32:50;100690.84;;;19.04;51.67
25638;BME280;13496;51.040;13.680;2023-04-09T23:37:53;100691.19;;;19.01;51.62
25638;BME280;13496;51.040;13.680;2023-04-09T23:42:55;100691.19;;;19.01;51.54
25638;BME280;13496;51.040;13.680;2023-04-09T23:47:56;100708.09;;;18.98;51.67
25638;BME280;13496;51.040;13.680;2023-04-09T23:52:58;100709.28;;;18.96;51.80
25638;BME280;13496;51.040;13.680;2023-04-09T23:58:04;100703.03;;;18.97;51.95
